sensor_id;sensor_type;location;lat;lon;timestamp;pressure;altitude;pressure_sealevel;temperature;humidity
62055;BME280;48653;51.742;-1.256;2024-02-04T00:03:48;101998.09;;;11.17;57.79
62055;BME280;48653;51.742;-1.256;2024-02-04T00:06:13;102003.44;;;11.58;57.65
62055;BME280;48653;51.742;-1.256;2024-02-04T00:08:37;102005.31;;;10.68;59.35
62055;BME280;48653;51.742;-1.256;2024-02-04T00:11:03;102003.69;;;11.38;58.45
62055;BME280;48653;51.742;-1.256;2024-02-04T00:13:28;102000.84;;;10.85;59.37
62055;BME280;48653;51.742;-1.256;2024-02-04T00:15:52;102008.78;;;11.55;58.05
62055;BME280;48653;51.742;-1.256;2024-02-04T00:18:18;102009.54;;;10.66;60.42
62055;BME280;48653;51.742;-1.256;2024-02-04T00:20:43;102014.40;;;10.40;60.57
62055;BME280;48653;51.742;-1.256;2024-02-04T00:23:08;102014.25;;;10.79;59.66
62055;BME280;48653;51.742;-1.256;2024-02-04T00:25:33;102010.17;;;10.90;59.53
62055;BME280;48653;51.742;-1.256;2024-02-04T00:27:58;102011.85;;;9.87;63.13
62055;BME280;48653;51.742;-1.256;2024-02-04T00:30:23;102001.29;;;10.78;61.11
62055;BME280;48653;51.742;-1.256;2024-02-04T00:32:48;101997.53;;;10.77;60.57
62055;BME280;48653;51.742;-1.256;2024-02-04T00:35:13;101996.40;;;10.39;61.27
62055;BME280;48653;51.742;-1.256;2024-02-04T00:37:38;101993.05;;;11.18;59.26
62055;BME280;48653;51.742;-1.256;2024-02-04T00:40:04;101990.78;;;11.24;59.13
62055;BME280;48653;51.742;-1.256;2024-02-04T00:42:28;101989.85;;;10.29;60.64
62055;BME280;48653;51.742;-1.256;2024-02-04T00:44:53;101985.46;;;10.25;61.52
62055;BME280;48653;51.742;-1.256;2024-02-04T00:47:19;101986.78;;;10.80;59.69
62055;BME280;48653;51.742;-1.256;2024-02-04T00:49:43;101987.06;;;10.40;61.33
62055;BME280;48653;51.742;-1.256;2024-02-04T00:52:09;101989.58;;;10.16;62.41
62055;BME280;48653;51.742;-1.256;2024-02-04T00:54:34;101995.46;;;10.75;60.89
62055;BME280;48653;51.742;-1.256;2024-02-04T00:56:59;101998.31;;;10.69;60.39
62055;BME280;48653;51.742;-1.256;2024-02-04T00:59:24;101994.86;;;10.27;60.96
62055;BME280;48653;51.742;-1.256;2024-02-04T01:01:49;101984.71;;;10.20;61.76
62055;BME280;48653;51.742;-1.256;2024-02-04T01:04:15;101978.25;;;10.39;61.19
62055;BME280;48653;51.742;-1.256;2024-02-04T01:06:40;101976.58;;;11.31;58.90
62055;BME280;48653;51.742;-1.256;2024-02-04T01:09:05;101970.01;;;11.07;58.93
62055;BME280;48653;51.742;-1.256;2024-02-04T01:11:31;101976.33;;;11.07;59.47
62055;BME280;48653;51.742;-1.256;2024-02-04T01:13:56;101972.68;;;9.99;61.94
62055;BME280;48653;51.742;-1.256;2024-02-04T01:16:21;101967.99;;;10.48;61.51
62055;BME280;48653;51.742;-1.256;2024-02-04T01:18:46;101963.46;;;10.47;60.59
62055;BME280;48653;51.742;-1.256;2024-02-04T01:21:11;101964.48;;;10.51;61.47
62055;BME280;48653;51.742;-1.256;2024-02-04T01:23:36;101965.09;;;10.67;60.55
62055;BME280;48653;51.742;-1.256;2024-02-04T01:26:02;101966.99;;;11.29;59.09
62055;BME280;48653;51.742;-1.256;2024-02-04T01:28:27;101965.60;;;11.19;58.66
62055;BME280;48653;51.742;-1.256;2024-02-04T01:30:52;101969.15;;;10.34;61.04
62055;BME280;48653;51.742;-1.256;2024-02-04T01:33:17;101967.97;;;11.29;58.27
62055;BME280;48653;51.742;-1.256;2024-02-04T01:35:42;101968.48;;;11.67;57.44
62055;BME280;48653;51.742;-1.256;2024-02-04T01:38:07;101962.04;;;11.51;56.63
62055;BME280;48653;51.742;-1.256;2024-02-04T01:40:32;101969.09;;;11.89;56.28
62055;BME280;48653;51.742;-1.256;2024-02-04T01:42:57;101961.72;;;11.60;56.27
62055;BME280;48653;51.742;-1.256;2024-02-04T01:45:22;101962.11;;;11.07;58.34
62055;BME280;48653;51.742;-1.256;2024-02-04T01:47:47;101951.86;;;11.72;56.62
62055;BME280;48653;51.742;-1.256;2024-02-04T01:50:12;101954.80;;;11.54;56.34
62055;BME280;48653;51.742;-1.256;2024-02-04T01:52:38;101960.09;;;12.05;55.98
62055;BME280;48653;51.742;-1.256;2024-02-04T01:55:03;101961.83;;;10.76;58.02
62055;BME280;48653;51.742;-1.256;2024-02-04T01:57:27;101965.45;;;11.48;56.68
62055;BME280;48653;51.742;-1.256;2024-02-04T01:59:53;101970.46;;;10.86;58.96
62055;BME280;48653;51.742;-1.256;2024-02-04T02:02:18;101968.90;;;11.08;58.65
62055;BME280;48653;51.742;-1.256;2024-02-04T02:04:43;101972.40;;;11.16;58.26
62055;BME280;48653;51.742;-1.256;2024-02-04T02:07:08;101969.28;;;10.68;60.21
62055;BME280;48653;51.742;-1.256;2024-02-04T02:09:33;101971.70;;;10.80;59.39
62055;BME280;48653;51.742;-1.256;2024-02-04T02:12:03;101967.92;;;10.07;61.34
62055;BME280;48653;51.742;-1.256;2024-02-04T02:14:26;101963.25;;;11.01;59.41
62055;BME280;48653;51.742;-1.256;2024-02-04T02:16:49;101949.30;;;10.79;59.26
62055;BME280;48653;51.742;-1.256;2024-02-04T02:19:29;101935.60;;;10.02;61.49
62055;BME280;48653;51.742;-1.256;2024-02-04T02:21:47;101928.83;;;10.38;60.68
62055;BME280;48653;51.742;-1.256;2024-02-04T02:24:11;101929.18;;;9.94;61.58
62055;BME280;48653;51.742;-1.256;2024-02-04T02:26:30;101939.61;;;9.59;63.25
62055;BME280;48653;51.742;-1.256;2024-02-04T02:28:55;101937.43;;;9.82;62.74
62055;BME280;48653;51.742;-1.256;2024-02-04T02:31:20;101937.74;;;10.51;61.11
62055;BME280;48653;51.742;-1.256;2024-02-04T02:33:45;101935.95;;;10.17;60.88
62055;BME280;48653;51.742;-1.256;2024-02-04T02:36:13;101931.46;;;9.08;64.26
62055;BME280;48653;51.742;-1.256;2024-02-04T02:38:42;101939.77;;;9.94;62.68
62055;BME280;48653;51.742;-1.256;2024-02-04T02:41:04;101939.15;;;9.81;62.60
62055;BME280;48653;51.742;-1.256;2024-02-04T02:43:26;101944.96;;;9.35;64.31
62055;BME280;48653;51.742;-1.256;2024-02-04T02:45:50;101939.99;;;9.62;62.98
62055;BME280;48653;51.742;-1.256;2024-02-04T02:48:16;101943.54;;;9.52;63.88
62055;BME280;48653;51.742;-1.256;2024-02-04T02:50:40;101931.58;;;10.13;61.83
62055;BME280;48653;51.742;-1.256;2024-02-04T02:53:05;101931.45;;;9.73;62.71
62055;BME280;48653;51.742;-1.256;2024-02-04T02:55:30;101937.11;;;9.44;63.54
62055;BME280;48653;51.742;-1.256;2024-02-04T02:57:56;101929.30;;;9.66;63.30
62055;BME280;48653;51.742;-1.256;2024-02-04T03:00:21;101929.42;;;10.23;61.73
62055;BME280;48653;51.742;-1.256;2024-02-04T03:02:45;101938.30;;;9.77;62.75
62055;BME280;48653;51.742;-1.256;2024-02-04T03:05:11;101939.89;;;8.86;65.23
62055;BME280;48653;51.742;-1.256;2024-02-04T03:07:35;101934.63;;;9.30;65.28
62055;BME280;48653;51.742;-1.256;2024-02-04T03:10:00;101931.00;;;8.86;66.79
62055;BME280;48653;51.742;-1.256;2024-02-04T03:12:25;101935.95;;;9.17;65.79
62055;BME280;48653;51.742;-1.256;2024-02-04T03:14:50;101932.18;;;10.05;63.64
62055;BME280;48653;51.742;-1.256;2024-02-04T03:17:15;101927.82;;;9.66;63.22
62055;BME280;48653;51.742;-1.256;2024-02-04T03:19:42;101930.40;;;9.85;62.57
62055;BME280;48653;51.742;-1.256;2024-02-04T03:22:06;101932.20;;;9.24;64.67
62055;BME280;48653;51.742;-1.256;2024-02-04T03:24:31;101922.84;;;9.81;63.36
62055;BME280;48653;51.742;-1.256;2024-02-04T03:26:56;101914.63;;;10.28;61.61
62055;BME280;48653;51.742;-1.256;2024-02-04T03:29:21;101917.91;;;10.20;61.09
62055;BME280;48653;51.742;-1.256;2024-02-04T03:31:46;101917.35;;;9.79;63.35
62055;BME280;48653;51.742;-1.256;2024-02-04T03:34:11;101911.42;;;9.19;63.91
62055;BME280;48653;51.742;-1.256;2024-02-04T03:36:37;101909.47;;;9.43;63.67
62055;BME280;48653;51.742;-1.256;2024-02-04T03:39:01;101908.68;;;10.37;61.86
62055;BME280;48653;51.742;-1.256;2024-02-04T03:41:27;101904.77;;;10.21;61.14
62055;BME280;48653;51.742;-1.256;2024-02-04T03:43:52;101903.45;;;9.78;62.56
62055;BME280;48653;51.742;-1.256;2024-02-04T03:46:17;101895.27;;;10.41;61.11
62055;BME280;48653;51.742;-1.256;2024-02-04T03:48:42;101886.57;;;10.39;60.32
62055;BME280;48653;51.742;-1.256;2024-02-04T03:51:07;101890.12;;;10.04;61.10
62055;BME280;48653;51.742;-1.256;2024-02-04T03:55:57;101884.13;;;10.22;61.10
62055;BME280;48653;51.742;-1.256;2024-02-04T03:58:23;101887.09;;;10.12;61.65
62055;BME280;48653;51.742;-1.256;2024-02-04T04:00:47;101886.11;;;9.96;62.00
62055;BME280;48653;51.742;-1.256;2024-02-04T04:03:12;101887.56;;;9.82;63.17
62055;BME280;48653;51.742;-1.256;2024-02-04T04:05:37;101881.95;;;9.99;62.12
62055;BME280;48653;51.742;-1.256;2024-02-04T04:08:02;101882.85;;;9.68;62.70
62055;BME280;48653;51.742;-1.256;2024-02-04T04:10:27;101876.52;;;9.42;64.67
62055;BME280;48653;51.742;-1.256;2024-02-04T04:12:53;101871.10;;;9.46;63.39
62055;BME280;48653;51.742;-1.256;2024-02-04T04:15:18;101872.00;;;9.16;63.93
62055;BME280;48653;51.742;-1.256;2024-02-04T04:17:43;101869.62;;;9.42;63.51
62055;BME280;48653;51.742;-1.256;2024-02-04T04:20:09;101871.83;;;10.00;62.12
62055;BME280;48653;51.742;-1.256;2024-02-04T04:22:34;101873.13;;;9.87;62.41
62055;BME280;48653;51.742;-1.256;2024-02-04T04:24:59;101873.41;;;10.25;60.64
62055;BME280;48653;51.742;-1.256;2024-02-04T04:27:23;101869.69;;;10.14;61.49
62055;BME280;48653;51.742;-1.256;2024-02-04T04:29:49;101856.36;;;10.71;59.77
62055;BME280;48653;51.742;-1.256;2024-02-04T04:32:14;101856.57;;;9.62;62.64
62055;BME280;48653;51.742;-1.256;2024-02-04T04:34:39;101854.31;;;9.08;65.34
62055;BME280;48653;51.742;-1.256;2024-02-04T04:37:04;101848.47;;;9.51;63.00
62055;BME280;48653;51.742;-1.256;2024-02-04T04:39:29;101848.80;;;9.65;62.52
62055;BME280;48653;51.742;-1.256;2024-02-04T04:41:54;101846.70;;;9.14;66.52
62055;BME280;48653;51.742;-1.256;2024-02-04T04:44:19;101831.62;;;9.59;64.05
62055;BME280;48653;51.742;-1.256;2024-02-04T04:46:44;101835.70;;;8.97;64.21
62055;BME280;48653;51.742;-1.256;2024-02-04T04:49:09;101829.20;;;9.26;64.18
62055;BME280;48653;51.742;-1.256;2024-02-04T04:51:34;101829.86;;;9.48;63.11
62055;BME280;48653;51.742;-1.256;2024-02-04T04:53:59;101830.92;;;9.33;63.80
62055;BME280;48653;51.742;-1.256;2024-02-04T04:56:24;101839.69;;;8.96;64.24
62055;BME280;48653;51.742;-1.256;2024-02-04T04:58:49;101838.71;;;9.43;63.17
62055;BME280;48653;51.742;-1.256;2024-02-04T05:01:14;101843.65;;;9.74;63.61
62055;BME280;48653;51.742;-1.256;2024-02-04T05:03:40;101844.00;;;10.03;61.59
62055;BME280;48653;51.742;-1.256;2024-02-04T05:06:05;101842.98;;;9.25;64.02
62055;BME280;48653;51.742;-1.256;2024-02-04T05:08:29;101845.48;;;9.92;62.37
62055;BME280;48653;51.742;-1.256;2024-02-04T05:10:54;101843.00;;;10.03;61.55
62055;BME280;48653;51.742;-1.256;2024-02-04T05:13:19;101839.69;;;9.88;61.91
62055;BME280;48653;51.742;-1.256;2024-02-04T05:15:44;101836.41;;;9.33;63.21
62055;BME280;48653;51.742;-1.256;2024-02-04T05:18:09;101844.08;;;9.89;63.22
62055;BME280;48653;51.742;-1.256;2024-02-04T05:20:34;101840.84;;;9.68;63.15
62055;BME280;48653;51.742;-1.256;2024-02-04T05:22:59;101833.74;;;10.33;61.71
62055;BME280;48653;51.742;-1.256;2024-02-04T05:25:24;101831.90;;;10.33;61.06
62055;BME280;48653;51.742;-1.256;2024-02-04T05:27:49;101837.34;;;10.57;59.81
62055;BME280;48653;51.742;-1.256;2024-02-04T05:30:15;101842.77;;;10.44;60.18
62055;BME280;48653;51.742;-1.256;2024-02-04T05:32:39;101842.61;;;10.30;60.28
62055;BME280;48653;51.742;-1.256;2024-02-04T05:35:07;101844.60;;;9.64;61.81
62055;BME280;48653;51.742;-1.256;2024-02-04T05:37:29;101842.42;;;10.32;60.93
62055;BME280;48653;51.742;-1.256;2024-02-04T05:39:54;101838.81;;;10.60;60.11
62055;BME280;48653;51.742;-1.256;2024-02-04T05:42:20;101837.22;;;9.58;62.61
62055;BME280;48653;51.742;-1.256;2024-02-04T05:44:44;101834.25;;;9.70;63.00
62055;BME280;48653;51.742;-1.256;2024-02-04T05:47:10;101841.97;;;9.52;64.28
62055;BME280;48653;51.742;-1.256;2024-02-04T05:49:35;101837.17;;;9.54;62.94
62055;BME280;48653;51.742;-1.256;2024-02-04T05:52:00;101848.13;;;10.17;61.38
62055;BME280;48653;51.742;-1.256;2024-02-04T05:54:25;101839.19;;;8.95;64.45
62055;BME280;48653;51.742;-1.256;2024-02-04T05:56:50;101832.44;;;10.29;61.67
62055;BME280;48653;51.742;-1.256;2024-02-04T05:59:15;101831.32;;;9.98;62.48
62055;BME280;48653;51.742;-1.256;2024-02-04T06:01:40;101826.60;;;9.93;63.58
62055;BME280;48653;51.742;-1.256;2024-02-04T06:04:05;101823.39;;;10.21;62.82
62055;BME280;48653;51.742;-1.256;2024-02-04T06:06:30;101818.31;;;9.62;63.53
62055;BME280;48653;51.742;-1.256;2024-02-04T06:08:55;101814.31;;;10.43;61.94
62055;BME280;48653;51.742;-1.256;2024-02-04T06:11:20;101812.86;;;10.06;62.47
62055;BME280;48653;51.742;-1.256;2024-02-04T06:13:45;101806.76;;;11.20;59.13
62055;BME280;48653;51.742;-1.256;2024-02-04T06:16:10;101813.04;;;9.67;62.78
62055;BME280;48653;51.742;-1.256;2024-02-04T06:18:35;101806.58;;;9.97;61.93
62055;BME280;48653;51.742;-1.256;2024-02-04T06:21:00;101810.73;;;10.22;61.44
62055;BME280;48653;51.742;-1.256;2024-02-04T06:23:25;101813.87;;;9.95;61.62
62055;BME280;48653;51.742;-1.256;2024-02-04T06:25:50;101816.84;;;10.32;61.38
62055;BME280;48653;51.742;-1.256;2024-02-04T06:28:15;101825.00;;;10.29;61.36
62055;BME280;48653;51.742;-1.256;2024-02-04T06:30:45;101816.85;;;10.29;60.74
62055;BME280;48653;51.742;-1.256;2024-02-04T06:33:05;101819.86;;;10.50;60.09
62055;BME280;48653;51.742;-1.256;2024-02-04T06:35:31;101818.76;;;10.07;61.04
62055;BME280;48653;51.742;-1.256;2024-02-04T06:37:55;101824.52;;;9.67;62.29
62055;BME280;48653;51.742;-1.256;2024-02-04T06:40:20;101831.66;;;9.91;61.73
62055;BME280;48653;51.742;-1.256;2024-02-04T06:42:45;101820.49;;;9.98;62.11
62055;BME280;48653;51.742;-1.256;2024-02-04T06:45:10;101811.91;;;10.48;59.08
62055;BME280;48653;51.742;-1.256;2024-02-04T06:47:35;101816.58;;;10.48;59.57
62055;BME280;48653;51.742;-1.256;2024-02-04T06:50:07;101812.24;;;10.54;59.25
62055;BME280;48653;51.742;-1.256;2024-02-04T06:52:25;101803.67;;;9.86;60.13
62055;BME280;48653;51.742;-1.256;2024-02-04T06:54:50;101808.73;;;9.70;61.56
62055;BME280;48653;51.742;-1.256;2024-02-04T06:57:15;101804.45;;;9.89;61.15
62055;BME280;48653;51.742;-1.256;2024-02-04T06:59:41;101803.02;;;10.21;61.08
62055;BME280;48653;51.742;-1.256;2024-02-04T07:02:07;101800.52;;;10.65;59.36
62055;BME280;48653;51.742;-1.256;2024-02-04T07:04:31;101799.01;;;10.16;60.12
62055;BME280;48653;51.742;-1.256;2024-02-04T07:06:56;101782.46;;;10.63;59.51
62055;BME280;48653;51.742;-1.256;2024-02-04T07:09:21;101787.40;;;9.90;61.64
62055;BME280;48653;51.742;-1.256;2024-02-04T07:11:46;101793.81;;;9.65;62.60
62055;BME280;48653;51.742;-1.256;2024-02-04T07:14:11;101783.15;;;9.98;61.33
62055;BME280;48653;51.742;-1.256;2024-02-04T07:16:36;101792.20;;;9.69;62.40
62055;BME280;48653;51.742;-1.256;2024-02-04T07:19:01;101793.47;;;10.94;59.09
62055;BME280;48653;51.742;-1.256;2024-02-04T07:21:26;101801.63;;;10.32;60.17
62055;BME280;48653;51.742;-1.256;2024-02-04T07:23:52;101803.68;;;10.16;60.62
62055;BME280;48653;51.742;-1.256;2024-02-04T07:26:17;101807.60;;;10.87;58.42
62055;BME280;48653;51.742;-1.256;2024-02-04T07:28:42;101809.24;;;10.46;58.75
62055;BME280;48653;51.742;-1.256;2024-02-04T07:31:07;101812.23;;;10.07;59.54
62055;BME280;48653;51.742;-1.256;2024-02-04T07:33:32;101808.98;;;10.12;60.25
62055;BME280;48653;51.742;-1.256;2024-02-04T07:35:57;101812.93;;;9.99;61.16
62055;BME280;48653;51.742;-1.256;2024-02-04T07:38:22;101813.12;;;10.35;59.93
62055;BME280;48653;51.742;-1.256;2024-02-04T07:40:52;101817.05;;;10.58;59.15
62055;BME280;48653;51.742;-1.256;2024-02-04T07:43:12;101814.33;;;10.66;58.66
62055;BME280;48653;51.742;-1.256;2024-02-04T07:45:42;101812.33;;;10.52;58.42
62055;BME280;48653;51.742;-1.256;2024-02-04T07:48:02;101817.84;;;11.34;56.94
62055;BME280;48653;51.742;-1.256;2024-02-04T07:50:27;101825.67;;;10.35;59.60
62055;BME280;48653;51.742;-1.256;2024-02-04T07:52:52;101825.25;;;10.40;60.10
62055;BME280;48653;51.742;-1.256;2024-02-04T07:55:20;101829.31;;;10.65;58.51
62055;BME280;48653;51.742;-1.256;2024-02-04T07:57:43;101825.37;;;10.59;59.08
62055;BME280;48653;51.742;-1.256;2024-02-04T08:00:08;101826.85;;;10.12;59.49
62055;BME280;48653;51.742;-1.256;2024-02-04T08:02:33;101825.28;;;10.26;60.57
62055;BME280;48653;51.742;-1.256;2024-02-04T08:04:58;101823.10;;;10.89;59.01
62055;BME280;48653;51.742;-1.256;2024-02-04T08:07:23;101818.96;;;8.89;64.15
62055;BME280;48653;51.742;-1.256;2024-02-04T08:09:48;101820.51;;;9.39;63.57
62055;BME280;48653;51.742;-1.256;2024-02-04T08:12:13;101825.53;;;9.93;61.85
62055;BME280;48653;51.742;-1.256;2024-02-04T08:14:38;101821.99;;;9.71;62.30
62055;BME280;48653;51.742;-1.256;2024-02-04T08:17:03;101814.71;;;9.57;62.82
62055;BME280;48653;51.742;-1.256;2024-02-04T08:19:28;101813.32;;;9.42;63.23
62055;BME280;48653;51.742;-1.256;2024-02-04T08:21:53;101807.22;;;10.14;61.50
62055;BME280;48653;51.742;-1.256;2024-02-04T08:24:18;101814.13;;;9.95;61.94
62055;BME280;48653;51.742;-1.256;2024-02-04T08:26:43;101815.49;;;10.14;61.36
62055;BME280;48653;51.742;-1.256;2024-02-04T08:29:13;101817.90;;;9.37;63.38
62055;BME280;48653;51.742;-1.256;2024-02-04T08:31:33;101818.32;;;10.39;60.43
62055;BME280;48653;51.742;-1.256;2024-02-04T08:33:58;101819.23;;;10.84;58.75
62055;BME280;48653;51.742;-1.256;2024-02-04T08:36:23;101824.55;;;9.58;62.26
62055;BME280;48653;51.742;-1.256;2024-02-04T08:38:49;101834.79;;;9.90;61.88
62055;BME280;48653;51.742;-1.256;2024-02-04T08:41:14;101828.10;;;10.19;60.49
62055;BME280;48653;51.742;-1.256;2024-02-04T08:43:39;101826.84;;;10.73;60.14
62055;BME280;48653;51.742;-1.256;2024-02-04T08:46:05;101823.49;;;10.09;60.59
62055;BME280;48653;51.742;-1.256;2024-02-04T08:48:29;101826.91;;;9.90;60.41
62055;BME280;48653;51.742;-1.256;2024-02-04T08:50:54;101832.70;;;10.94;58.27
62055;BME280;48653;51.742;-1.256;2024-02-04T08:53:19;101829.33;;;11.14;56.58
62055;BME280;48653;51.742;-1.256;2024-02-04T08:55:44;101828.30;;;10.76;58.62
62055;BME280;48653;51.742;-1.256;2024-02-04T08:58:11;101828.76;;;10.68;58.67
62055;BME280;48653;51.742;-1.256;2024-02-04T09:00:34;101832.16;;;10.24;59.25
62055;BME280;48653;51.742;-1.256;2024-02-04T09:03:00;101823.83;;;10.56;59.31
62055;BME280;48653;51.742;-1.256;2024-02-04T09:05:25;101820.93;;;10.74;58.89
62055;BME280;48653;51.742;-1.256;2024-02-04T09:07:50;101820.70;;;9.82;61.39
62055;BME280;48653;51.742;-1.256;2024-02-04T09:10:15;101815.90;;;9.84;60.90
62055;BME280;48653;51.742;-1.256;2024-02-04T09:12:40;101816.50;;;10.41;59.97
62055;BME280;48653;51.742;-1.256;2024-02-04T09:15:06;101819.70;;;9.95;60.60
62055;BME280;48653;51.742;-1.256;2024-02-04T09:17:30;101820.60;;;10.86;58.62
62055;BME280;48653;51.742;-1.256;2024-02-04T09:19:57;101826.79;;;10.90;58.46
62055;BME280;48653;51.742;-1.256;2024-02-04T09:22:20;101823.99;;;10.00;61.06
62055;BME280;48653;51.742;-1.256;2024-02-04T09:24:45;101819.34;;;10.61;59.85
62055;BME280;48653;51.742;-1.256;2024-02-04T09:27:10;101821.70;;;10.71;58.92
62055;BME280;48653;51.742;-1.256;2024-02-04T09:29:35;101825.29;;;9.89;61.96
62055;BME280;48653;51.742;-1.256;2024-02-04T09:32:01;101821.24;;;10.31;60.27
62055;BME280;48653;51.742;-1.256;2024-02-04T09:34:25;101826.43;;;10.80;59.43
62055;BME280;48653;51.742;-1.256;2024-02-04T09:36:51;101821.98;;;10.73;58.33
62055;BME280;48653;51.742;-1.256;2024-02-04T09:39:16;101821.46;;;10.65;58.59
62055;BME280;48653;51.742;-1.256;2024-02-04T09:41:41;101824.85;;;11.10;58.68
62055;BME280;48653;51.742;-1.256;2024-02-04T09:44:06;101817.03;;;10.20;60.56
62055;BME280;48653;51.742;-1.256;2024-02-04T09:46:31;101813.51;;;10.17;60.26
62055;BME280;48653;51.742;-1.256;2024-02-04T09:48:56;101817.68;;;10.28;60.45
62055;BME280;48653;51.742;-1.256;2024-02-04T09:51:21;101813.84;;;10.84;59.24
62055;BME280;48653;51.742;-1.256;2024-02-04T09:53:51;101814.19;;;10.98;58.09
62055;BME280;48653;51.742;-1.256;2024-02-04T09:56:12;101823.25;;;10.36;59.97
62055;BME280;48653;51.742;-1.256;2024-02-04T09:58:36;101828.16;;;9.90;61.20
62055;BME280;48653;51.742;-1.256;2024-02-04T10:01:03;101827.25;;;10.31;60.83
62055;BME280;48653;51.742;-1.256;2024-02-04T10:03:31;101827.63;;;9.46;63.54
62055;BME280;48653;51.742;-1.256;2024-02-04T10:05:52;101830.76;;;10.20;61.72
62055;BME280;48653;51.742;-1.256;2024-02-04T10:08:17;101821.47;;;10.10;61.58
62055;BME280;48653;51.742;-1.256;2024-02-04T10:10:42;101831.56;;;9.64;62.19
62055;BME280;48653;51.742;-1.256;2024-02-04T10:13:08;101820.30;;;10.45;60.62
62055;BME280;48653;51.742;-1.256;2024-02-04T10:15:33;101819.22;;;10.49;59.20
62055;BME280;48653;51.742;-1.256;2024-02-04T10:17:57;101829.74;;;10.16;60.84
62055;BME280;48653;51.742;-1.256;2024-02-04T10:20:22;101821.26;;;10.52;60.10
62055;BME280;48653;51.742;-1.256;2024-02-04T10:22:49;101820.97;;;9.91;60.98
62055;BME280;48653;51.742;-1.256;2024-02-04T10:25:12;101833.21;;;10.82;60.34
62055;BME280;48653;51.742;-1.256;2024-02-04T10:27:38;101830.15;;;10.87;59.51
62055;BME280;48653;51.742;-1.256;2024-02-04T10:30:03;101833.84;;;10.06;60.94
62055;BME280;48653;51.742;-1.256;2024-02-04T10:32:28;101826.36;;;10.29;59.77
62055;BME280;48653;51.742;-1.256;2024-02-04T10:34:53;101823.14;;;10.73;59.24
62055;BME280;48653;51.742;-1.256;2024-02-04T10:37:18;101814.53;;;11.07;58.14
62055;BME280;48653;51.742;-1.256;2024-02-04T10:39:43;101812.21;;;10.73;58.48
62055;BME280;48653;51.742;-1.256;2024-02-04T10:42:15;101823.82;;;9.83;61.16
62055;BME280;48653;51.742;-1.256;2024-02-04T10:44:36;101815.42;;;9.95;60.84
62055;BME280;48653;51.742;-1.256;2024-02-04T10:47:05;101816.61;;;9.75;61.83
62055;BME280;48653;51.742;-1.256;2024-02-04T10:49:25;101820.32;;;10.05;61.12
62055;BME280;48653;51.742;-1.256;2024-02-04T10:51:51;101818.87;;;10.47;61.37
62055;BME280;48653;51.742;-1.256;2024-02-04T10:54:15;101829.58;;;10.04;61.32
62055;BME280;48653;51.742;-1.256;2024-02-04T10:56:43;101817.55;;;9.64;62.06
62055;BME280;48653;51.742;-1.256;2024-02-04T10:59:05;101815.16;;;10.58;60.53
62055;BME280;48653;51.742;-1.256;2024-02-04T11:01:30;101817.53;;;10.24;60.78
62055;BME280;48653;51.742;-1.256;2024-02-04T11:03:55;101820.59;;;10.27;60.51
62055;BME280;48653;51.742;-1.256;2024-02-04T11:06:20;101820.67;;;10.39;60.55
62055;BME280;48653;51.742;-1.256;2024-02-04T11:08:45;101829.89;;;10.36;60.53
62055;BME280;48653;51.742;-1.256;2024-02-04T11:11:15;101824.31;;;10.71;58.84
62055;BME280;48653;51.742;-1.256;2024-02-04T11:13:36;101832.79;;;10.05;61.10
62055;BME280;48653;51.742;-1.256;2024-02-04T11:16:04;101828.39;;;10.33;60.92
62055;BME280;48653;51.742;-1.256;2024-02-04T11:18:39;101822.27;;;10.34;61.24
62055;BME280;48653;51.742;-1.256;2024-02-04T11:21:03;101811.22;;;10.19;61.00
62055;BME280;48653;51.742;-1.256;2024-02-04T11:23:28;101818.15;;;10.64;60.42
62055;BME280;48653;51.742;-1.256;2024-02-04T11:25:44;101814.48;;;10.58;60.75
62055;BME280;48653;51.742;-1.256;2024-02-04T11:28:05;101806.82;;;10.49;60.72
62055;BME280;48653;51.742;-1.256;2024-02-04T11:30:33;101810.84;;;10.58;59.73
62055;BME280;48653;51.742;-1.256;2024-02-04T11:32:55;101816.58;;;9.88;61.90
62055;BME280;48653;51.742;-1.256;2024-02-04T11:35:21;101822.26;;;9.86;62.18
62055;BME280;48653;51.742;-1.256;2024-02-04T11:37:46;101823.19;;;10.34;61.31
62055;BME280;48653;51.742;-1.256;2024-02-04T11:40:15;101815.98;;;10.42;60.72
62055;BME280;48653;51.742;-1.256;2024-02-04T11:42:36;101810.17;;;10.44;61.26
62055;BME280;48653;51.742;-1.256;2024-02-04T11:45:07;101809.95;;;10.36;61.42
62055;BME280;48653;51.742;-1.256;2024-02-04T11:47:33;101807.83;;;10.46;61.34
62055;BME280;48653;51.742;-1.256;2024-02-04T11:49:54;101804.30;;;10.56;61.06
62055;BME280;48653;51.742;-1.256;2024-02-04T11:52:19;101805.06;;;10.06;61.73
62055;BME280;48653;51.742;-1.256;2024-02-04T11:54:41;101792.78;;;10.19;61.82
62055;BME280;48653;51.742;-1.256;2024-02-04T11:57:06;101793.43;;;10.68;61.26
62055;BME280;48653;51.742;-1.256;2024-02-04T11:59:31;101784.86;;;10.67;59.86
62055;BME280;48653;51.742;-1.256;2024-02-04T12:02:04;101790.53;;;10.23;61.94
62055;BME280;48653;51.742;-1.256;2024-02-04T12:04:22;101789.53;;;9.95;62.66
62055;BME280;48653;51.742;-1.256;2024-02-04T12:06:47;101780.29;;;10.15;62.65
62055;BME280;48653;51.742;-1.256;2024-02-04T12:09:11;101775.10;;;10.21;62.58
62055;BME280;48653;51.742;-1.256;2024-02-04T12:11:37;101770.23;;;9.76;62.99
62055;BME280;48653;51.742;-1.256;2024-02-04T12:14:03;101766.86;;;9.82;64.06
62055;BME280;48653;51.742;-1.256;2024-02-04T12:18:52;101755.85;;;9.98;62.90
62055;BME280;48653;51.742;-1.256;2024-02-04T12:21:17;101754.79;;;10.23;61.83
62055;BME280;48653;51.742;-1.256;2024-02-04T12:23:42;101757.08;;;10.18;62.31
62055;BME280;48653;51.742;-1.256;2024-02-04T12:26:07;101749.46;;;10.64;61.55
62055;BME280;48653;51.742;-1.256;2024-02-04T12:28:32;101759.06;;;10.67;61.23
62055;BME280;48653;51.742;-1.256;2024-02-04T12:30:58;101754.99;;;10.31;62.35
62055;BME280;48653;51.742;-1.256;2024-02-04T12:33:22;101756.04;;;10.64;62.04
62055;BME280;48653;51.742;-1.256;2024-02-04T12:35:49;101746.75;;;10.25;62.48
62055;BME280;48653;51.742;-1.256;2024-02-04T12:38:18;101746.21;;;10.23;63.20